Texas General Land Office
 Texas General Land Office
 George P. Bush, Commissioner

 Oil Spill Prevention
 & Response

Texas Automated Buoy System
Real Time Ocean Observations
Supporting Oil Spill Prevention and
Response since 1995
Geochemical and Environmental Research Group

NOAA - NDBC Buoy 42020 -- Texas Automated Buoy System

NBDC Buoy 42020
Corpus Christi, TX
Conditions at 12/18/2018 23:50 UTC (12/18/2018 23:50 UTC)
26° 57.0000'N   96° 42.0000'W
50nm Southeast of Corpus Christi, TX
Anemometer height: 5m
Water Depth: 252 feet (77 meters)
Wind: 3.0 m/s (5.8 kts)
          From 170°T (S)
Wind Gust: 4.00 m/s (7.8 kts) Pressure: 1012.5 mb (29.90 inHg)
Air Temp: 21°C (70 °F) Dewpoint: 17°C (62°F) Relative Humidity: 75%
Sea Surf Temp: 22 °C (72 °F) Wave Height: 0.6m (2.0 ft) Wave Period: 5
  


IMPORTANT: Notice to Mariners


   Date      Time    Speed     Dir   Gust    AtmPr   AirT   DewPt   WaterT  RelH  WvHt  WvPer
          |  (UTC) | (m/s) |  (°T) | (m/s) |  (mb) |  (°C) |  (°C) |  (°C) | (%) | (m) | (s) |
==========+========+=======+=======+=======+=======+=======+=======+=======+=====+=====+=====+
12/18/2018 00:00:00     5.0      60     7.0 1020.90    20.1    14.9    22.2    72 -99.0  -99
12/18/2018 00:10:00     5.0      70     6.0 1021.00    20.1    14.6   -99.0    70 -99.0  -99
12/18/2018 00:20:00     5.0      80     7.0 1020.60    20.0    14.5    22.2    70 -99.0  -99
12/18/2018 00:30:00     5.0      70     7.0 1020.70    20.1    14.3    22.2    69 -99.0  -99
12/18/2018 00:40:00     5.0      70     6.0 1020.90    20.2    14.5    22.2    69 -99.0  -99
12/18/2018 00:50:00     5.0      70     7.0 1020.70    20.1    14.5    22.2    70   0.4    5
12/18/2018 01:00:00     5.0      60     7.0 1020.90    20.2    14.6    22.2    70 -99.0  -99
12/18/2018 01:10:00     6.0      70     7.0 1020.90    20.2    14.6   -99.0    70 -99.0  -99
12/18/2018 01:20:00     5.0      70     6.0 1020.80    20.1    14.4    22.2    69 -99.0  -99
12/18/2018 01:30:00     5.0      70     7.0 1020.70    20.2    14.9    22.2    71 -99.0  -99
12/18/2018 01:40:00     6.0      70     8.0 1020.90    20.2    14.4    22.2    69 -99.0  -99
12/18/2018 01:50:00     5.0      80     7.0 1021.00    20.2    14.9   -99.0    71   0.4    5
12/18/2018 02:00:00     5.0      90     7.0 1021.20    20.2    15.1    22.2    72 -99.0  -99
12/18/2018 02:10:00     6.0      70     9.0 1021.00    20.2    15.2    22.2    73 -99.0  -99
12/18/2018 02:20:00     6.0      70     7.0 1021.20    20.2    15.1    22.2    72 -99.0  -99
12/18/2018 02:30:00     6.0      90     8.0 1021.10    20.3    14.8    22.2    70 -99.0  -99
12/18/2018 02:40:00     6.0      90     8.0 1021.30    20.2    14.9    22.2    71 -99.0  -99
12/18/2018 02:50:00     6.0      90     8.0 1021.20    20.2    14.7    22.2    70   0.5    3
12/18/2018 03:00:00     6.0      90     7.0 1021.40    20.2    14.3   -99.0    68 -99.0  -99
12/18/2018 03:10:00     5.0      90     6.0 1021.30    20.1    14.1    22.2    68 -99.0  -99
12/18/2018 03:20:00     5.0      80     6.0 1021.20    20.1    14.1    22.2    68 -99.0  -99
12/18/2018 03:30:00     5.0     100     7.0 1021.20    20.3    15.1    22.2    72 -99.0  -99
12/18/2018 03:40:00     6.0     100     9.0 1021.10    20.2    14.9    22.2    71 -99.0  -99
12/18/2018 03:50:00     6.0     100     8.0 1021.20    20.2    14.5    22.2    69   0.5    3
12/18/2018 04:00:00     6.0     100     8.0 1021.20    20.2    14.3    22.2    68 -99.0  -99
12/18/2018 04:10:00     5.0      90     7.0 1021.10    20.2    13.8    22.2    66 -99.0  -99
12/18/2018 04:20:00     6.0     100     7.0 1020.80    20.2    14.2    22.2    68 -99.0  -99
12/18/2018 04:30:00     6.0     100     8.0 1020.90    20.3    14.2    22.2    68 -99.0  -99
12/18/2018 04:40:00     6.0     100     7.0 1020.80    20.3    14.1    22.2    67   0.5  -99
12/18/2018 04:50:00     6.0     100     7.0 1020.80    20.2    13.8    22.2    66   0.5    3
12/18/2018 05:00:00     5.0      80     7.0 1020.80    20.2    13.9    22.2    67 -99.0  -99
12/18/2018 05:10:00     5.0      90     7.0 1020.50    20.3    14.5    22.2    69 -99.0  -99
12/18/2018 05:20:00     5.0     100     6.0 1020.70    20.3    14.5    22.2    69 -99.0  -99
12/18/2018 05:30:00     5.0      90     7.0 1020.70    20.3    14.7    22.2    70 -99.0  -99
12/18/2018 05:40:00     5.0     100     6.0 1020.60    20.3    14.7    22.2    70 -99.0  -99
12/18/2018 05:50:00     5.0      90     7.0 1020.40    20.3    14.8    22.2    70   0.5    4
12/18/2018 06:00:00     5.0     100     7.0 1020.50    20.4    15.1   -99.0    71 -99.0  -99
12/18/2018 06:10:00     4.0     110     7.0 1020.30    20.4    15.2    22.2    72 -99.0  -99
12/18/2018 06:20:00     4.0     110     6.0 1020.00    20.4    15.4    22.2    73 -99.0  -99
12/18/2018 06:30:00     5.0     110     6.0 1020.10    20.4    15.5    22.2    73 -99.0  -99
12/18/2018 06:40:00     5.0     100     6.0 1020.10    20.4    15.8    22.2    74   0.5  -99
12/18/2018 06:50:00     5.0     100     7.0 1019.70    20.4    15.8    22.2    74   0.5    3
12/18/2018 07:00:00     5.0     100     6.0 1019.70    20.4    15.9    22.2    75 -99.0  -99
12/18/2018 07:10:00     5.0      80     7.0 1019.30    20.4    15.9    22.2    75 -99.0  -99
12/18/2018 07:20:00     5.0      90     6.0 1019.30    20.4    16.2    22.2    76 -99.0  -99
12/18/2018 07:30:00     5.0      90     6.0 1019.30    20.5    16.4    22.2    77 -99.0  -99
12/18/2018 07:40:00     5.0     100     6.0 1019.30    20.5    16.3    22.2    76 -99.0  -99
12/18/2018 07:50:00     5.0      90     6.0 1019.10    20.6    16.5    22.2    77   0.5    4
12/18/2018 08:00:00     5.0     100     7.0 1018.80    20.6    16.3   -99.0    76 -99.0  -99
12/18/2018 08:10:00     5.0     120     6.0 1018.80    20.6    15.7    22.2    73 -99.0  -99
12/18/2018 08:20:00     5.0     120     6.0 1018.80    20.7    15.9    22.2    74 -99.0  -99
12/18/2018 08:30:00     5.0     130     6.0 1018.40    20.6    15.5    22.2    72 -99.0  -99
12/18/2018 08:40:00     5.0     130     7.0 1018.40    20.8    16.0    22.2    74 -99.0  -99
12/18/2018 08:50:00     5.0     120     7.0 1018.40    20.7    16.0    22.2    74   0.5    3
12/18/2018 09:00:00     4.0     120     5.0 1018.20    20.6    15.6    22.2    73 -99.0  -99
12/18/2018 09:10:00     4.0     120     5.0 1018.30    20.7    15.8    22.1    73 -99.0  -99
12/18/2018 09:20:00     4.0     130     5.0 1018.30    20.7    15.8    22.2    73 -99.0  -99
12/18/2018 09:30:00     4.0     120     5.0 1018.10    20.8    16.3    22.2    75 -99.0  -99
12/18/2018 09:40:00     5.0     120     7.0 1017.80    20.8    16.2    22.1    74   0.5  -99
12/18/2018 09:50:00     6.0     110     7.0 1017.80    20.7    16.1    22.1    74   0.5    4
12/18/2018 10:00:00     6.0     110     7.0 1017.70    20.7    16.2    22.1    75 -99.0  -99
12/18/2018 10:10:00     6.0     110     7.0 1017.80    20.7    16.4    22.1    76 -99.0  -99
12/18/2018 10:20:00     6.0     110     7.0 1017.60    20.7    16.6    22.1    77 -99.0  -99
12/18/2018 10:30:00     6.0     110     7.0 1017.60    20.7    16.6    22.1    77 -99.0  -99
12/18/2018 10:40:00     6.0     110     8.0 1017.60    20.7    16.7    22.1    77   0.4  -99
12/18/2018 10:50:00     6.0     110     7.0 1017.50    20.8    17.1    22.1    79   0.4    4
12/18/2018 11:00:00     5.0     100     6.0 1017.40    20.8    17.2    22.1    79 -99.0  -99
12/18/2018 11:10:00     5.0      90     6.0 1017.50    20.8    17.2    22.1    79 -99.0  -99
12/18/2018 11:20:00     5.0     100     6.0 1017.30    20.8    17.2    22.1    79 -99.0  -99
12/18/2018 11:30:00     5.0     100     6.0 1017.20    20.9    17.3    22.1    79 -99.0  -99
12/18/2018 11:40:00     5.0      90     7.0 1017.10    21.0    17.5    22.1    80 -99.0  -99
12/18/2018 11:50:00     5.0      90     6.0 1017.10    21.0    17.6    22.1    80   0.5    4
12/18/2018 12:00:00     5.0      90     7.0 1017.00    21.1    18.0    22.1    82 -99.0  -99
12/18/2018 12:10:00     6.0     100     7.0 1017.20    21.0    18.2    22.1    84 -99.0  -99
12/18/2018 12:20:00     5.0     100     7.0 1017.20    20.8    17.9    22.1    83 -99.0  -99
12/18/2018 12:30:00     6.0     100     7.0 1017.20    20.9    18.1    22.1    84 -99.0  -99
12/18/2018 12:40:00     6.0     100     7.0 1017.20    20.9    18.2    22.1    84   0.5  -99
12/18/2018 12:50:00     6.0     100     7.0 1017.30    20.9    18.2    22.1    84   0.5    4
12/18/2018 13:00:00     5.0     100     7.0 1017.30    20.9    18.3    22.1    85 -99.0  -99
12/18/2018 13:10:00     6.0     110     8.0 1017.20    20.9    18.0   -99.0    83 -99.0  -99
12/18/2018 13:20:00     6.0     110     7.0 1017.30    20.9    17.9   -99.0    83 -99.0  -99
12/18/2018 13:30:00     6.0     110     7.0 1017.40    21.0    17.9    22.1    82 -99.0  -99
12/18/2018 13:40:00     5.0     100     7.0 1017.40    20.9    17.9    22.1    83 -99.0  -99
12/18/2018 13:50:00     5.0      90     7.0 1017.50    20.9    18.0    22.1    83   0.5    4
12/18/2018 14:00:00     5.0     100     7.0 1017.60    21.0    18.2   -99.0    84 -99.0  -99
12/18/2018 14:10:00     5.0      90     7.0 1017.70    21.1    18.3    22.1    84 -99.0  -99
12/18/2018 14:20:00     6.0     100     7.0 1017.80    21.1    18.4    22.1    84 -99.0  -99
12/18/2018 14:30:00     5.0      90     7.0 1017.80    21.2    18.4    22.1    84 -99.0  -99
12/18/2018 14:40:00     6.0     100     7.0 1017.60    21.2    18.5    22.1    84   0.5  -99
12/18/2018 14:50:00     6.0     100     8.0 1017.50    21.2    18.8    22.1    86   0.5    4
12/18/2018 15:00:00     6.0     110     7.0 1017.70    21.1    19.2    22.1    88 -99.0  -99
12/18/2018 15:10:00     6.0     100     7.0 1017.30    20.9    19.4    22.1    91 -99.0  -99
12/18/2018 15:20:00     6.0     110     7.0 1017.30    21.0    19.6    22.1    91 -99.0  -99
12/18/2018 15:30:00     6.0     110     7.0 1017.60    21.2    19.7    22.1    91 -99.0  -99
12/18/2018 15:40:00     7.0     120     9.0 1017.40    21.4    19.4    22.1    88 -99.0  -99
12/18/2018 15:50:00     7.0     110     8.0 1017.60    21.6    19.2    22.1    86   0.6    3
12/18/2018 16:00:00     6.0     110     9.0 1017.60    21.7    19.4    22.1    86 -99.0  -99
12/18/2018 16:10:00     7.0     140     9.0 1017.60    21.7    19.0   -99.0    84 -99.0  -99
12/18/2018 16:20:00     7.0     140     8.0 1017.60    21.7    18.9    22.1    84 -99.0  -99
12/18/2018 16:30:00     7.0     140     8.0 1017.50    21.7    18.7    22.1    83 -99.0  -99
12/18/2018 16:40:00     6.0     130     7.0 1017.50    21.8    18.9    22.1    83   0.7  -99
12/18/2018 16:50:00     6.0     130     7.0 1017.40    21.8    18.9    22.1    83   0.7    4
12/18/2018 17:00:00     6.0     130     7.0 1017.40    21.9    18.6    22.1    81 -99.0  -99
12/18/2018 17:10:00     6.0     130     8.0 1017.20    21.9    18.4    22.1    80 -99.0  -99
12/18/2018 17:20:00     6.0     130     7.0 1016.90    21.9    18.3    22.1    80 -99.0  -99
12/18/2018 17:30:00     6.0     140     7.0 1016.90    22.0    18.6    22.1    81 -99.0  -99
12/18/2018 17:40:00     6.0     140     7.0 1016.60    22.0    18.6    22.1    81   0.7  -99
12/18/2018 17:50:00     6.0     130     7.0 1016.30    22.1    19.0    22.1    82   0.7    4
12/18/2018 18:00:00     6.0     150     7.0 1015.90    22.0    19.0    22.1    83 -99.0  -99
12/18/2018 18:10:00     6.0     150     7.0 1015.70    22.0    19.0    22.1    83 -99.0  -99
12/18/2018 18:20:00     5.0     150     7.0 1015.40    21.9    18.9    22.1    83 -99.0  -99
12/18/2018 18:30:00     5.0     150     6.0 1015.40    21.9    19.0    22.1    83 -99.0  -99
12/18/2018 18:40:00     5.0     150     6.0 1015.10   -99.0   -99.0    22.1   100 -99.0  -99
12/18/2018 18:50:00     5.0     150     6.0 1014.90    21.9    18.8    22.1    82   0.8    4
12/18/2018 19:00:00     4.0     150     5.0 1014.90   -99.0   -99.0    22.1   100 -99.0  -99
12/18/2018 19:10:00     5.0     150     6.0 1014.60    21.9    18.2   -99.0    79 -99.0  -99
12/18/2018 19:20:00     5.0     140     5.0 1014.40   -99.0   -99.0    22.1   100 -99.0  -99
12/18/2018 19:30:00     5.0     140     6.0 1014.20    21.8    18.4    22.1    81 -99.0  -99
12/18/2018 19:40:00     5.0     150     6.0 1014.10    21.8    18.8    22.1    83   0.7  -99
12/18/2018 19:50:00     5.0     150     7.0 1013.90    21.7    18.4    22.1    81   0.7    5
12/18/2018 20:00:00     5.0     140     7.0 1014.20    21.7    18.0    22.1    79 -99.0  -99
12/18/2018 20:10:00     5.0     140     7.0 1013.80    21.7    17.9    22.1    79 -99.0  -99
12/18/2018 20:20:00     5.0     140     6.0 1013.90    21.7    17.9    22.1    79 -99.0  -99
12/18/2018 20:30:00     5.0     130     6.0 1013.30    21.7    17.6    22.1    77 -99.0  -99
12/18/2018 20:40:00     4.0     140     5.0 1013.20    21.7    17.8    22.1    78 -99.0  -99
12/18/2018 20:50:00     5.0     150     6.0 1013.20    21.7    18.0    22.1    79   0.8    5
12/18/2018 21:00:00     5.0     150     6.0 1013.20    21.7    18.2    22.1    80 -99.0  -99
12/18/2018 21:10:00     5.0     180     6.0 1012.90    21.4    18.7    22.1    84 -99.0  -99
12/18/2018 21:20:00     5.0     190     5.0 1012.70    21.3    18.5    22.1    84 -99.0  -99
12/18/2018 21:30:00     4.0     180     5.0 1012.70    21.3    18.6    22.1    84 -99.0  -99
12/18/2018 21:40:00     4.0     170     5.0 1012.50    21.3    18.8    22.1    85 -99.0  -99
12/18/2018 21:50:00     4.0     160     5.0 1012.40    21.3    18.7    22.1    85   0.8    5
12/18/2018 22:00:00     4.0     170     5.0 1012.60    21.3    18.4   -99.0    83 -99.0  -99
12/18/2018 22:10:00     3.0     170     4.0 1012.40    21.4    18.0    22.1    81 -99.0  -99
12/18/2018 22:20:00     3.0     160     5.0 1012.30    21.4    17.9    22.1    80 -99.0  -99
12/18/2018 22:30:00     3.0     180     5.0 1012.30   -99.0   -99.0    22.1   100 -99.0  -99
12/18/2018 22:40:00     4.0     170     5.0 1012.30    21.4    17.3    22.1    77   0.6  -99
12/18/2018 22:50:00     4.0     170     5.0 1012.40    21.4    17.6    22.1    78   0.6    5
12/18/2018 23:00:00     3.0     180     4.0 1012.40    21.4    17.5    22.1    78 -99.0  -99
12/18/2018 23:10:00     3.0     180     4.0 1012.50    21.3    17.3    22.1    77 -99.0  -99
12/18/2018 23:20:00     3.0     180     4.0 1012.40    21.3    17.0    22.1    76 -99.0  -99
12/18/2018 23:30:00     3.0     170     4.0 1012.40    21.4    17.2    22.1    77 -99.0  -99
12/18/2018 23:40:00     3.0     180     4.0 1012.40    21.3    16.9    22.0    76 -99.0  -99
12/18/2018 23:50:00     3.0     170     4.0 1012.50    21.3    16.8    22.0    75   0.6    5